createdAt,value
2023-03-22T00:01:36.888Z,88.13
2023-03-22T00:04:03.718Z,88.25
2023-03-22T00:06:30.282Z,88.22
2023-03-22T00:08:57.036Z,88.07
2023-03-22T00:11:25.832Z,88.31
2023-03-22T00:13:52.783Z,88.50
2023-03-22T00:16:20.421Z,88.53
2023-03-22T00:18:47.114Z,88.40
2023-03-22T00:21:16.144Z,88.46
2023-03-22T00:23:43.480Z,88.57
2023-03-22T00:26:11.684Z,88.64
2023-03-22T00:28:38.541Z,88.88
2023-03-22T00:31:06.507Z,89.19
2023-03-22T00:33:33.398Z,89.19
2023-03-22T00:36:11.722Z,89.32
2023-03-22T00:38:44.022Z,89.46
2023-03-22T00:41:16.120Z,89.59
2023-03-22T00:43:43.459Z,89.71
2023-03-22T00:46:11.284Z,89.75
2023-03-22T00:48:38.356Z,89.73
2023-03-22T00:51:05.816Z,89.67
2023-03-22T00:53:36.627Z,89.81
2023-03-22T00:56:04.870Z,90.00
2023-03-22T00:58:32.233Z,90.16
2023-03-22T01:00:58.906Z,89.96
2023-03-22T01:03:25.590Z,89.82
2023-03-22T01:05:56.994Z,89.78
2023-03-22T01:08:24.447Z,89.80
2023-03-22T01:10:51.485Z,89.65
2023-03-22T01:13:18.768Z,89.62
2023-03-22T01:15:47.751Z,89.48
2023-03-22T01:18:14.454Z,89.49
2023-03-22T01:20:41.514Z,89.26
2023-03-22T01:23:09.300Z,89.18
2023-03-22T01:25:35.868Z,89.02
2023-03-22T01:28:02.930Z,88.71
2023-03-22T01:30:30.594Z,88.91
2023-03-22T01:32:57.299Z,88.89
2023-03-22T01:35:24.140Z,88.60
2023-03-22T01:37:50.747Z,88.51
2023-03-22T01:40:17.597Z,88.61
2023-03-22T01:42:44.879Z,88.66
2023-03-22T01:45:14.504Z,88.52
2023-03-22T01:48:10.749Z,88.26
2023-03-22T01:50:39.614Z,88.26
2023-03-22T01:53:08.555Z,88.09
2023-03-22T01:55:35.482Z,87.98
2023-03-22T01:58:03.287Z,87.96
2023-03-22T02:00:30.505Z,88.04
2023-03-22T02:02:57.163Z,87.87
2023-03-22T02:05:25.614Z,87.63
2023-03-22T02:07:53.792Z,87.67
2023-03-22T02:10:24.580Z,87.87
2023-03-22T02:13:16.336Z,87.73
2023-03-22T02:15:55.988Z,87.67
2023-03-22T02:18:38.679Z,87.22
2023-03-22T02:21:34.380Z,87.07
2023-03-22T02:24:19.561Z,87.19
2023-03-22T02:26:49.666Z,87.51
2023-03-22T02:29:46.519Z,87.82
2023-03-22T02:32:50.622Z,87.62
2023-03-22T02:35:36.535Z,87.80
2023-03-22T02:38:42.632Z,87.78
2023-03-22T02:41:18.419Z,87.67
2023-03-22T02:43:54.061Z,87.70
2023-03-22T02:46:44.827Z,87.62
2023-03-22T02:49:31.203Z,87.65
2023-03-22T02:52:12.959Z,87.54
2023-03-22T02:54:47.722Z,87.45
2023-03-22T02:57:22.768Z,87.50
2023-03-22T02:59:51.671Z,87.42
2023-03-22T03:02:20.141Z,87.47
2023-03-22T03:04:51.308Z,87.46
2023-03-22T03:07:25.975Z,87.24
2023-03-22T03:09:53.117Z,87.34
2023-03-22T03:12:26.036Z,87.08
2023-03-22T03:14:54.490Z,87.03
2023-03-22T03:17:33.230Z,87.08
2023-03-22T03:20:08.744Z,87.25
2023-03-22T03:22:49.785Z,87.65
2023-03-22T03:25:51.928Z,88.15
2023-03-22T03:28:40.690Z,88.70
2023-03-22T03:31:10.003Z,89.15
2023-03-22T03:33:43.376Z,89.67
2023-03-22T03:36:13.650Z,89.91
2023-03-22T03:38:44.648Z,90.18
2023-03-22T03:41:16.435Z,90.32
2023-03-22T03:43:45.194Z,90.46
2023-03-22T03:46:12.853Z,90.69
2023-03-22T03:48:43.050Z,90.47
2023-03-22T03:51:09.868Z,90.55
2023-03-22T03:53:36.400Z,90.42
2023-03-22T03:56:03.024Z,90.15
2023-03-22T03:58:30.958Z,89.74
2023-03-22T04:00:58.910Z,89.86
2023-03-22T04:03:25.855Z,89.92
2023-03-22T04:05:52.690Z,90.12
2023-03-22T04:08:19.281Z,90.38
2023-03-22T04:10:50.807Z,90.34
2023-03-22T04:13:24.882Z,90.46
2023-03-22T04:15:55.291Z,90.26
2023-03-22T04:18:21.939Z,90.05
2023-03-22T04:20:49.562Z,89.67
2023-03-22T04:23:16.618Z,89.58
2023-03-22T04:25:43.812Z,89.37
2023-03-22T04:28:10.485Z,89.11
2023-03-22T04:30:37.291Z,88.98
2023-03-22T04:33:08.180Z,88.58
2023-03-22T04:35:35.597Z,88.50
2023-03-22T04:38:02.120Z,88.34
2023-03-22T04:40:35.352Z,88.22
2023-03-22T04:43:04.177Z,88.44
2023-03-22T04:45:32.472Z,88.53
2023-03-22T04:47:59.912Z,88.34
2023-03-22T04:50:28.259Z,87.95
2023-03-22T04:52:55.109Z,88.64
2023-03-22T04:55:21.695Z,88.83
2023-03-22T04:57:48.209Z,88.99
2023-03-22T05:00:15.727Z,89.08
2023-03-22T05:02:42.408Z,89.03
2023-03-22T05:05:09.296Z,88.63
2023-03-22T05:07:36.781Z,88.48
2023-03-22T05:10:03.604Z,88.11
2023-03-22T05:12:30.182Z,88.15
2023-03-22T05:14:57.177Z,88.22
2023-03-22T05:17:23.861Z,88.35
2023-03-22T05:19:52.371Z,88.14
2023-03-22T05:22:19.465Z,87.91
2023-03-22T05:24:46.209Z,87.88
2023-03-22T05:27:14.291Z,87.71
2023-03-22T05:29:45.307Z,87.41
2023-03-22T05:32:12.992Z,87.26
2023-03-22T05:34:42.840Z,87.09
2023-03-22T05:37:09.542Z,86.79
2023-03-22T05:39:36.764Z,86.75
2023-03-22T05:42:03.516Z,86.69
2023-03-22T05:44:30.422Z,86.79
2023-03-22T05:46:57.069Z,86.66
2023-03-22T05:49:23.707Z,86.75
2023-03-22T05:51:50.694Z,86.94
2023-03-22T05:54:17.218Z,86.82
2023-03-22T05:56:44.356Z,86.58
2023-03-22T05:59:11.087Z,86.57
2023-03-22T06:01:37.673Z,86.71
2023-03-22T06:04:04.683Z,86.89
2023-03-22T06:06:31.272Z,86.57
2023-03-22T06:09:07.269Z,86.53
2023-03-22T06:11:40.878Z,86.74
2023-03-22T06:14:07.456Z,86.93
2023-03-22T06:16:34.084Z,87.31
2023-03-22T06:19:00.891Z,87.44
2023-03-22T06:21:27.406Z,87.42
2023-03-22T06:23:54.032Z,87.37
2023-03-22T06:26:21.807Z,87.45
2023-03-22T06:28:48.380Z,87.34
2023-03-22T06:31:14.893Z,87.25
2023-03-22T06:33:41.621Z,86.98
2023-03-22T06:36:08.510Z,87.04
2023-03-22T06:38:35.210Z,87.11
2023-03-22T06:41:01.814Z,87.41
2023-03-22T06:43:28.431Z,87.21
2023-03-22T06:45:57.354Z,87.23
2023-03-22T06:48:24.121Z,87.31
2023-03-22T06:50:50.927Z,87.23
2023-03-22T06:53:17.481Z,86.93
2023-03-22T06:55:44.125Z,87.08
2023-03-22T06:58:14.891Z,86.85
2023-03-22T07:00:41.875Z,86.72
2023-03-22T07:03:08.712Z,86.31
2023-03-22T07:05:35.390Z,86.10
2023-03-22T07:08:02.103Z,85.20
2023-03-22T07:10:29.249Z,84.52
2023-03-22T07:12:55.870Z,83.87
2023-03-22T07:15:24.759Z,82.70
2023-03-22T07:17:52.198Z,81.94
2023-03-22T07:20:19.956Z,81.22
2023-03-22T07:22:46.596Z,80.71
2023-03-22T07:25:13.760Z,80.96
2023-03-22T07:27:40.746Z,81.29
2023-03-22T07:30:09.699Z,81.48
2023-03-22T07:32:36.566Z,81.69
2023-03-22T07:35:03.443Z,81.95
2023-03-22T07:37:30.013Z,81.63
2023-03-22T07:39:56.583Z,81.23
2023-03-22T07:42:24.840Z,80.67
2023-03-22T07:44:51.981Z,80.56
2023-03-22T07:47:30.502Z,80.27
2023-03-22T07:50:04.978Z,80.60
2023-03-22T07:52:32.661Z,80.36
2023-03-22T07:54:59.262Z,80.24
2023-03-22T07:57:32.840Z,79.76
2023-03-22T07:59:59.795Z,79.84
2023-03-22T08:02:26.710Z,79.42
2023-03-22T08:04:56.580Z,79.80
2023-03-22T08:07:25.273Z,79.70
2023-03-22T08:09:51.898Z,80.25
2023-03-22T08:12:19.317Z,80.19
2023-03-22T08:14:50.530Z,80.58
2023-03-22T08:17:18.787Z,80.68
2023-03-22T08:19:45.711Z,80.69
2023-03-22T08:22:13.481Z,80.72
2023-03-22T08:24:40.015Z,80.89
2023-03-22T08:27:06.970Z,81.00
2023-03-22T08:29:34.035Z,81.05
2023-03-22T08:32:02.620Z,80.87
2023-03-22T08:34:33.369Z,81.07
2023-03-22T08:37:00.189Z,80.96
2023-03-22T08:39:28.215Z,81.28
2023-03-22T08:41:56.961Z,81.24
2023-03-22T08:44:24.192Z,81.23
2023-03-22T08:46:52.190Z,81.05
2023-03-22T08:49:18.995Z,80.81
2023-03-22T08:51:46.558Z,80.43
2023-03-22T08:54:13.695Z,79.78
2023-03-22T08:56:41.972Z,79.12
2023-03-22T08:59:09.806Z,78.67
2023-03-22T09:01:37.415Z,78.23
2023-03-22T09:04:04.671Z,77.91
2023-03-22T09:06:31.361Z,77.47
2023-03-22T09:09:01.684Z,77.40
2023-03-22T09:11:28.299Z,76.53
2023-03-22T09:13:54.846Z,75.98
2023-03-22T09:16:21.441Z,75.27
2023-03-22T09:18:48.428Z,75.27
2023-03-22T09:21:15.107Z,74.65
2023-03-22T09:24:00.654Z,73.70
2023-03-22T09:26:27.901Z,73.38
2023-03-22T09:28:56.092Z,72.48
2023-03-22T09:31:22.782Z,72.07
2023-03-22T09:33:49.503Z,71.39
2023-03-22T09:36:16.842Z,71.31
2023-03-22T09:38:43.661Z,69.89
2023-03-22T09:41:22.587Z,69.98
2023-03-22T09:43:54.119Z,69.76
2023-03-22T09:46:40.988Z,70.09
2023-03-22T09:49:50.474Z,69.34
2023-03-22T09:52:19.589Z,68.76
2023-03-22T09:54:47.223Z,68.37
2023-03-22T09:57:28.630Z,68.16
2023-03-22T10:00:14.517Z,67.53
2023-03-22T10:03:06.890Z,66.74
2023-03-22T10:05:43.076Z,65.52
2023-03-22T10:08:09.857Z,64.62
2023-03-22T10:10:37.550Z,64.09
2023-03-22T10:13:13.985Z,64.11
2023-03-22T10:15:47.276Z,63.75
2023-03-22T10:18:47.278Z,63.41
2023-03-22T10:21:15.988Z,62.47
2023-03-22T10:24:00.828Z,61.86
2023-03-22T10:26:33.651Z,60.96
2023-03-22T10:29:04.773Z,60.52
2023-03-22T10:31:34.039Z,60.59
2023-03-22T10:34:19.557Z,60.19
2023-03-22T10:36:48.064Z,60.16
2023-03-22T10:39:30.298Z,59.46
2023-03-22T10:42:12.555Z,58.83
2023-03-22T10:44:48.223Z,58.78
2023-03-22T10:47:18.415Z,59.19
2023-03-22T10:49:53.204Z,58.97
2023-03-22T10:52:44.890Z,59.40
2023-03-22T10:55:13.900Z,59.58
2023-03-22T10:57:43.227Z,60.00
2023-03-22T11:00:14.003Z,60.29
2023-03-22T11:02:58.530Z,60.53
2023-03-22T11:05:28.204Z,60.31
2023-03-22T11:07:58.494Z,60.65
2023-03-22T11:10:35.510Z,60.11
2023-03-22T11:13:07.914Z,60.77
2023-03-22T11:15:37.862Z,60.91
2023-03-22T11:18:12.961Z,60.49
2023-03-22T11:20:42.604Z,60.95
2023-03-22T11:23:17.830Z,60.60
2023-03-22T11:25:50.955Z,60.16
2023-03-22T11:28:19.304Z,60.35
2023-03-22T11:31:06.803Z,60.52
2023-03-22T11:33:34.144Z,59.69
2023-03-22T11:36:04.850Z,59.75
2023-03-22T11:38:38.412Z,59.63
2023-03-22T11:41:19.082Z,59.06
2023-03-22T11:43:54.180Z,59.48
2023-03-22T11:46:21.883Z,58.54
2023-03-22T11:48:51.844Z,58.08
2023-03-22T11:51:37.375Z,58.28
2023-03-22T11:54:22.275Z,58.44
2023-03-22T11:56:50.672Z,58.83
2023-03-22T11:59:27.836Z,58.55
2023-03-22T12:02:06.008Z,58.55
2023-03-22T12:04:37.880Z,57.74
2023-03-22T12:07:13.525Z,57.68
2023-03-22T12:09:40.096Z,58.23
2023-03-22T12:12:13.591Z,58.04
2023-03-22T12:14:56.004Z,57.73
2023-03-22T12:17:38.923Z,57.82
2023-03-22T12:20:43.413Z,57.35
2023-03-22T12:23:18.688Z,57.49
2023-03-22T12:25:53.954Z,57.30
2023-03-22T12:28:27.007Z,57.23
2023-03-22T12:30:59.035Z,56.93
2023-03-22T12:33:27.655Z,56.63
2023-03-22T12:35:59.035Z,56.35
2023-03-22T12:38:51.239Z,56.51
2023-03-22T12:41:50.649Z,56.60
2023-03-22T12:44:24.422Z,56.98
2023-03-22T12:47:01.615Z,56.67
2023-03-22T12:49:29.390Z,56.23
2023-03-22T12:52:11.767Z,55.85
2023-03-22T12:54:39.610Z,55.68
2023-03-22T12:57:07.055Z,55.61
2023-03-22T12:59:36.618Z,56.06
2023-03-22T13:02:34.525Z,56.58
2023-03-22T13:05:05.047Z,56.39
2023-03-22T13:07:46.060Z,56.04
2023-03-22T13:10:31.423Z,55.75
2023-03-22T13:13:31.808Z,55.11
2023-03-22T13:16:11.089Z,55.26
2023-03-22T13:18:38.425Z,55.68
2023-03-22T13:21:22.017Z,55.43
2023-03-22T13:24:10.343Z,55.46
2023-03-22T13:26:46.158Z,55.81
2023-03-22T13:29:22.033Z,55.86
2023-03-22T13:31:52.414Z,55.51
2023-03-22T13:34:22.714Z,55.33
2023-03-22T13:36:55.578Z,55.44
2023-03-22T13:39:25.543Z,54.96
2023-03-22T13:42:06.243Z,54.72
2023-03-22T13:44:39.856Z,54.35
2023-03-22T13:47:34.315Z,53.92
2023-03-22T13:50:07.501Z,53.86
2023-03-22T13:52:39.533Z,54.02
2023-03-22T13:55:36.028Z,54.37
2023-03-22T13:58:05.619Z,54.32
2023-03-22T14:00:32.134Z,54.31
2023-03-22T14:03:04.084Z,54.74
2023-03-22T14:05:36.528Z,54.94
2023-03-22T14:08:04.577Z,54.82
2023-03-22T14:10:42.409Z,54.83
2023-03-22T14:13:31.307Z,54.27
2023-03-22T14:16:21.771Z,54.62
2023-03-22T14:18:49.914Z,54.41
2023-03-22T14:21:23.674Z,54.32
2023-03-22T14:52:23.225Z,54.07
2023-03-22T14:54:54.673Z,54.21
2023-03-22T14:57:28.391Z,54.07
2023-03-22T15:00:16.395Z,54.25
2023-03-22T15:02:46.545Z,54.16
2023-03-22T15:05:22.474Z,54.11
2023-03-22T15:07:50.910Z,54.35
2023-03-22T15:10:22.168Z,54.21
2023-03-22T15:12:50.893Z,54.35
2023-03-22T15:15:20.021Z,54.51
2023-03-22T15:17:48.085Z,54.73
2023-03-22T15:20:24.065Z,54.80
2023-03-22T15:22:58.963Z,55.03
2023-03-22T15:25:32.334Z,55.25
2023-03-22T15:28:06.836Z,55.27
2023-03-22T15:30:33.756Z,55.13
2023-03-22T15:33:08.012Z,55.01
2023-03-22T15:35:35.042Z,55.05
2023-03-22T15:38:06.160Z,55.25
2023-03-22T15:40:38.197Z,55.99
2023-03-22T15:43:23.850Z,55.54
2023-03-22T15:46:09.276Z,55.81
2023-03-22T15:48:47.897Z,56.12
2023-03-22T15:51:20.082Z,56.33
2023-03-22T15:53:48.908Z,56.26
2023-03-22T15:56:32.011Z,56.58
2023-03-22T15:59:03.075Z,56.74
2023-03-22T16:01:41.409Z,56.60
2023-03-22T16:04:18.825Z,56.73
2023-03-22T16:06:45.766Z,57.39
2023-03-22T16:09:12.619Z,57.55
2023-03-22T16:11:39.591Z,57.86
2023-03-22T16:14:07.037Z,58.08
2023-03-22T16:16:33.759Z,58.26
2023-03-22T16:19:00.408Z,58.31
2023-03-22T16:21:32.899Z,58.29
2023-03-22T16:24:01.165Z,58.52
2023-03-22T16:26:28.541Z,58.87
2023-03-22T16:28:55.595Z,59.04
2023-03-22T16:31:23.783Z,59.02
2023-03-22T16:33:51.219Z,59.22
2023-03-22T16:36:20.931Z,59.62
2023-03-22T16:38:48.764Z,59.78
2023-03-22T16:41:23.036Z,59.74
2023-03-22T16:43:50.648Z,60.14
2023-03-22T16:46:17.735Z,60.27
2023-03-22T16:48:45.441Z,60.67
2023-03-22T16:51:25.404Z,60.94
2023-03-22T16:53:53.031Z,61.11
2023-03-22T16:56:23.386Z,61.46
2023-03-22T16:58:51.151Z,61.68
2023-03-22T17:01:20.340Z,62.00
2023-03-22T17:03:52.026Z,62.52
2023-03-22T17:06:21.448Z,62.71
2023-03-22T17:08:48.272Z,63.10
2023-03-22T17:11:23.376Z,63.75
2023-03-22T17:13:54.434Z,64.21
2023-03-22T17:16:21.908Z,64.80
2023-03-22T17:18:49.612Z,65.28
2023-03-22T17:21:18.596Z,65.69
2023-03-22T17:23:46.995Z,65.93
2023-03-22T17:26:15.475Z,66.14
2023-03-22T17:28:42.160Z,66.32
2023-03-22T17:31:09.575Z,66.44
2023-03-22T17:33:37.113Z,66.82
2023-03-22T17:36:04.200Z,67.07
2023-03-22T17:38:34.635Z,67.33
2023-03-22T17:41:09.188Z,67.89
2023-03-22T17:43:36.139Z,68.43
2023-03-22T17:46:49.707Z,68.87
2023-03-22T17:48:49.764Z,69.15
2023-03-22T17:51:16.438Z,69.42
2023-03-22T17:54:35.577Z,69.69
2023-03-22T17:57:03.435Z,69.91
2023-03-22T17:59:16.730Z,70.05
2023-03-22T18:01:44.291Z,70.26
2023-03-22T18:04:11.123Z,70.63
2023-03-22T18:06:37.891Z,70.72
2023-03-22T18:09:04.974Z,71.05
2023-03-22T18:11:31.941Z,71.37
2023-03-22T18:14:13.693Z,71.17
2023-03-22T18:16:52.677Z,71.27
2023-03-22T18:19:23.137Z,71.47
2023-03-22T18:21:55.570Z,71.78
2023-03-22T18:24:26.803Z,72.09
2023-03-22T18:27:10.581Z,72.23
2023-03-22T18:29:38.293Z,72.71
2023-03-22T18:32:17.322Z,72.79
2023-03-22T18:34:45.784Z,72.97
2023-03-22T18:37:13.615Z,73.02
2023-03-22T18:40:20.942Z,72.99
2023-03-22T18:44:54.557Z,73.22
2023-03-22T18:47:21.349Z,73.60
2023-03-22T18:49:48.220Z,73.62
2023-03-22T18:52:39.909Z,73.80
2023-03-22T18:55:21.519Z,73.80
2023-03-22T18:57:49.003Z,73.97
2023-03-22T19:00:16.592Z,73.94
2023-03-22T19:02:44.044Z,74.07
2023-03-22T19:05:11.289Z,73.99
2023-03-22T19:10:12.959Z,74.18
2023-03-22T19:12:41.317Z,74.28
2023-03-22T19:15:32.121Z,73.89
2023-03-22T19:17:55.551Z,73.83
2023-03-22T19:20:22.985Z,73.83
2023-03-22T19:22:49.821Z,74.00
2023-03-22T19:25:17.712Z,74.19
2023-03-22T19:30:11.871Z,74.05
2023-03-22T19:32:39.079Z,74.24
2023-03-22T19:35:06.815Z,74.18
2023-03-22T19:37:33.469Z,73.81
2023-03-22T19:40:45.815Z,73.84
2023-03-22T19:42:47.274Z,73.66
2023-03-22T19:45:15.121Z,73.71
2023-03-22T19:47:58.003Z,73.55
2023-03-22T19:50:28.853Z,73.43
2023-03-22T19:52:57.990Z,73.35
2023-03-22T19:55:25.560Z,73.24
2023-03-22T19:57:52.874Z,73.00
2023-03-22T20:00:45.076Z,72.99
2023-03-22T20:03:07.707Z,72.66
2023-03-22T20:05:37.255Z,72.73
2023-03-22T20:08:08.302Z,72.41
2023-03-22T20:10:37.063Z,72.21
2023-03-22T20:13:03.932Z,72.22
2023-03-22T20:15:31.119Z,71.81
2023-03-22T20:17:57.899Z,71.75
2023-03-22T20:20:24.837Z,71.80
2023-03-22T20:22:53.579Z,71.50
2023-03-22T20:25:21.937Z,71.53
2023-03-22T20:27:50.059Z,72.12
2023-03-22T20:30:19.057Z,72.27
2023-03-22T20:32:46.362Z,71.88
2023-03-22T20:35:13.225Z,71.52
2023-03-22T20:37:40.193Z,71.36
2023-03-22T20:40:09.584Z,71.16
2023-03-22T20:42:38.193Z,71.19
2023-03-22T20:45:05.266Z,71.30
2023-03-22T20:47:33.410Z,71.11
2023-03-22T20:50:00.184Z,71.17
2023-03-22T20:52:27.551Z,71.01
2023-03-22T20:54:54.187Z,71.04
2023-03-22T20:57:20.828Z,71.25
2023-03-22T20:59:47.559Z,71.25
2023-03-22T21:02:14.409Z,71.25
2023-03-22T21:04:41.502Z,71.01
2023-03-22T21:07:08.400Z,71.08
2023-03-22T21:09:36.880Z,70.98
2023-03-22T21:12:03.954Z,70.95
2023-03-22T21:14:31.236Z,71.01
2023-03-22T21:16:57.961Z,71.20
2023-03-22T21:19:24.953Z,70.96
2023-03-22T21:21:54.134Z,71.03
2023-03-22T21:24:21.192Z,71.20
2023-03-22T21:26:47.775Z,70.99
2023-03-22T21:29:14.556Z,71.13
2023-03-22T21:31:41.786Z,70.95
2023-03-22T21:34:09.297Z,70.93
2023-03-22T21:36:37.212Z,71.15
2023-03-22T21:39:07.986Z,70.96
2023-03-22T21:41:35.321Z,71.28
2023-03-22T21:44:08.394Z,71.31
2023-03-22T21:46:38.190Z,71.29
2023-03-22T21:49:06.654Z,71.67
2023-03-22T21:51:33.575Z,71.63
2023-03-22T21:54:01.382Z,71.75
2023-03-22T21:56:29.531Z,72.17
2023-03-22T21:58:56.443Z,72.30
2023-03-22T22:01:23.787Z,72.46
2023-03-22T22:03:51.178Z,72.67
2023-03-22T22:06:18.446Z,72.86
2023-03-22T22:08:45.306Z,73.18
2023-03-22T22:11:12.162Z,73.63
2023-03-22T22:13:39.242Z,73.72
2023-03-22T22:16:12.575Z,73.73
2023-03-22T22:18:41.453Z,73.87
2023-03-22T22:21:11.894Z,74.14
2023-03-22T22:23:39.857Z,74.24
2023-03-22T22:26:09.113Z,74.39
2023-03-22T22:28:37.713Z,74.59
2023-03-22T22:31:26.190Z,74.68
2023-03-22T22:33:55.731Z,74.99
2023-03-22T22:36:24.001Z,75.01
2023-03-22T22:38:51.445Z,75.09
2023-03-22T22:41:19.233Z,75.08
2023-03-22T22:43:46.373Z,75.14
2023-03-22T22:46:13.833Z,75.37
2023-03-22T22:48:42.932Z,75.47
2023-03-22T22:51:12.314Z,75.78
2023-03-22T22:53:39.720Z,75.89
2023-03-22T22:56:09.187Z,75.81
2023-03-22T22:58:36.830Z,76.12
2023-03-22T23:01:05.480Z,76.25
2023-03-22T23:03:34.818Z,75.98
2023-03-22T23:06:06.771Z,76.05
2023-03-22T23:08:33.496Z,76.01
2023-03-22T23:11:00.472Z,76.25
2023-03-22T23:13:30.293Z,76.18
2023-03-22T23:15:59.012Z,76.17
2023-03-22T23:18:28.943Z,76.53
2023-03-22T23:20:57.779Z,76.36
2023-03-22T23:23:28.099Z,76.44
2023-03-22T23:25:57.632Z,76.61
2023-03-22T23:28:26.819Z,76.53
2023-03-22T23:30:54.462Z,76.99
2023-03-22T23:33:21.254Z,76.77
2023-03-22T23:35:51.083Z,77.01
2023-03-22T23:38:17.775Z,77.15
2023-03-22T23:40:44.986Z,77.27
2023-03-22T23:43:11.737Z,77.45
2023-03-22T23:45:42.373Z,77.59
2023-03-22T23:48:09.458Z,77.69
2023-03-22T23:50:36.393Z,78.01
2023-03-22T23:53:03.012Z,77.98
2023-03-22T23:55:29.719Z,78.16
2023-03-22T23:57:57.084Z,78.19
